sensor_id;sensor_type;location;lat;lon;timestamp;temperature;humidity
9820;DHT22;4949;48.482;9.206;2023-05-14T00:03:49;12.50;89.10
9820;DHT22;4949;48.482;9.206;2023-05-14T00:08:50;12.40;89.00
9820;DHT22;4949;48.482;9.206;2023-05-14T00:13:53;12.30;89.20
9820;DHT22;4949;48.482;9.206;2023-05-14T00:18:56;12.30;89.40
9820;DHT22;4949;48.482;9.206;2023-05-14T00:23:57;12.20;89.70
9820;DHT22;4949;48.482;9.206;2023-05-14T00:28:57;12.20;89.60
9820;DHT22;4949;48.482;9.206;2023-05-14T00:33:58;12.20;89.50
9820;DHT22;4949;48.482;9.206;2023-05-14T00:38:59;12.20;89.30
9820;DHT22;4949;48.482;9.206;2023-05-14T00:44:00;12.20;89.60
9820;DHT22;4949;48.482;9.206;2023-05-14T00:49:03;12.10;89.60
9820;DHT22;4949;48.482;9.206;2023-05-14T00:54:04;12.10;89.70
9820;DHT22;4949;48.482;9.206;2023-05-14T00:59:05;12.10;89.50
9820;DHT22;4949;48.482;9.206;2023-05-14T01:04:07;12.00;89.60
9820;DHT22;4949;48.482;9.206;2023-05-14T01:09:24;12.00;89.80
9820;DHT22;4949;48.482;9.206;2023-05-14T01:14:43;12.00;90.00
9820;DHT22;4949;48.482;9.206;2023-05-14T01:19:46;12.00;89.90
9820;DHT22;4949;48.482;9.206;2023-05-14T01:24:49;12.00;89.90
9820;DHT22;4949;48.482;9.206;2023-05-14T01:35:29;12.00;90.00
9820;DHT22;4949;48.482;9.206;2023-05-14T01:40:35;12.00;90.00
9820;DHT22;4949;48.482;9.206;2023-05-14T01:45:39;11.90;89.80
9820;DHT22;4949;48.482;9.206;2023-05-14T01:50:42;11.90;89.80
9820;DHT22;4949;48.482;9.206;2023-05-14T01:55:43;11.90;90.00
9820;DHT22;4949;48.482;9.206;2023-05-14T02:00:43;11.90;90.00
9820;DHT22;4949;48.482;9.206;2023-05-14T02:05:44;11.80;90.50
9820;DHT22;4949;48.482;9.206;2023-05-14T02:10:45;11.80;90.10
9820;DHT22;4949;48.482;9.206;2023-05-14T02:15:45;11.80;90.20
9820;DHT22;4949;48.482;9.206;2023-05-14T02:20:49;11.80;90.20
9820;DHT22;4949;48.482;9.206;2023-05-14T02:25:55;11.80;90.30
9820;DHT22;4949;48.482;9.206;2023-05-14T02:31:01;11.80;90.20
9820;DHT22;4949;48.482;9.206;2023-05-14T02:36:06;11.80;90.20
9820;DHT22;4949;48.482;9.206;2023-05-14T02:41:07;11.80;90.30
9820;DHT22;4949;48.482;9.206;2023-05-14T02:46:08;11.80;90.40
9820;DHT22;4949;48.482;9.206;2023-05-14T02:51:15;11.80;90.30
9820;DHT22;4949;48.482;9.206;2023-05-14T02:56:18;11.90;90.40
9820;DHT22;4949;48.482;9.206;2023-05-14T03:01:19;11.90;90.40
9820;DHT22;4949;48.482;9.206;2023-05-14T03:06:20;11.90;90.40
9820;DHT22;4949;48.482;9.206;2023-05-14T03:11:20;11.90;90.30
9820;DHT22;4949;48.482;9.206;2023-05-14T03:16:23;11.90;90.40
9820;DHT22;4949;48.482;9.206;2023-05-14T03:21:24;12.00;90.40
9820;DHT22;4949;48.482;9.206;2023-05-14T03:26:25;11.90;90.20
9820;DHT22;4949;48.482;9.206;2023-05-14T03:31:28;11.90;90.10
9820;DHT22;4949;48.482;9.206;2023-05-14T03:36:29;11.90;90.20
9820;DHT22;4949;48.482;9.206;2023-05-14T03:41:33;11.90;90.10
9820;DHT22;4949;48.482;9.206;2023-05-14T03:46:34;12.30;90.50
9820;DHT22;4949;48.482;9.206;2023-05-14T03:51:37;12.00;90.10
9820;DHT22;4949;48.482;9.206;2023-05-14T03:56:38;12.00;90.30
9820;DHT22;4949;48.482;9.206;2023-05-14T04:01:42;11.90;90.30
9820;DHT22;4949;48.482;9.206;2023-05-14T04:06:45;11.90;90.30
9820;DHT22;4949;48.482;9.206;2023-05-14T04:11:48;11.90;90.30
9820;DHT22;4949;48.482;9.206;2023-05-14T04:16:51;11.90;90.50
9820;DHT22;4949;48.482;9.206;2023-05-14T04:21:52;11.90;90.40
9820;DHT22;4949;48.482;9.206;2023-05-14T04:26:55;11.90;90.50
9820;DHT22;4949;48.482;9.206;2023-05-14T04:31:58;12.00;90.60
9820;DHT22;4949;48.482;9.206;2023-05-14T04:36:59;12.10;90.60
9820;DHT22;4949;48.482;9.206;2023-05-14T04:42:03;11.90;90.60
9820;DHT22;4949;48.482;9.206;2023-05-14T04:47:08;11.90;90.60
9820;DHT22;4949;48.482;9.206;2023-05-14T04:52:11;11.90;90.60
9820;DHT22;4949;48.482;9.206;2023-05-14T04:57:12;12.00;90.80
9820;DHT22;4949;48.482;9.206;2023-05-14T05:02:13;11.90;90.60
9820;DHT22;4949;48.482;9.206;2023-05-14T05:07:18;11.90;90.60
9820;DHT22;4949;48.482;9.206;2023-05-14T05:12:21;11.90;90.60
9820;DHT22;4949;48.482;9.206;2023-05-14T05:17:25;12.00;90.70
9820;DHT22;4949;48.482;9.206;2023-05-14T05:22:26;12.10;90.60
9820;DHT22;4949;48.482;9.206;2023-05-14T05:27:32;12.10;90.60
9820;DHT22;4949;48.482;9.206;2023-05-14T05:32:33;12.10;90.50
9820;DHT22;4949;48.482;9.206;2023-05-14T05:37:36;12.20;90.40
9820;DHT22;4949;48.482;9.206;2023-05-14T05:42:37;12.20;90.40
9820;DHT22;4949;48.482;9.206;2023-05-14T05:47:40;12.20;91.00
9820;DHT22;4949;48.482;9.206;2023-05-14T05:52:41;12.20;90.70
9820;DHT22;4949;48.482;9.206;2023-05-14T05:57:41;12.20;90.70
9820;DHT22;4949;48.482;9.206;2023-05-14T06:02:45;12.30;90.70
9820;DHT22;4949;48.482;9.206;2023-05-14T06:07:48;12.30;90.60
9820;DHT22;4949;48.482;9.206;2023-05-14T06:12:51;12.30;90.60
9820;DHT22;4949;48.482;9.206;2023-05-14T06:17:52;12.30;90.60
9820;DHT22;4949;48.482;9.206;2023-05-14T06:22:55;12.40;90.70
9820;DHT22;4949;48.482;9.206;2023-05-14T06:27:55;12.30;90.60
9820;DHT22;4949;48.482;9.206;2023-05-14T06:33:01;12.30;90.50
9820;DHT22;4949;48.482;9.206;2023-05-14T06:38:02;12.30;90.60
9820;DHT22;4949;48.482;9.206;2023-05-14T06:43:02;12.30;90.40
9820;DHT22;4949;48.482;9.206;2023-05-14T06:48:06;12.40;90.60
9820;DHT22;4949;48.482;9.206;2023-05-14T06:53:09;12.40;90.60
9820;DHT22;4949;48.482;9.206;2023-05-14T06:58:10;12.30;90.70
9820;DHT22;4949;48.482;9.206;2023-05-14T07:03:10;12.40;90.80
9820;DHT22;4949;48.482;9.206;2023-05-14T07:08:11;12.40;90.70
9820;DHT22;4949;48.482;9.206;2023-05-14T07:13:12;12.40;90.60
9820;DHT22;4949;48.482;9.206;2023-05-14T07:18:12;12.50;90.60
9820;DHT22;4949;48.482;9.206;2023-05-14T07:23:16;12.60;90.60
9820;DHT22;4949;48.482;9.206;2023-05-14T07:28:19;12.50;90.30
9820;DHT22;4949;48.482;9.206;2023-05-14T07:33:23;12.50;90.40
9820;DHT22;4949;48.482;9.206;2023-05-14T07:38:24;12.50;90.30
9820;DHT22;4949;48.482;9.206;2023-05-14T07:43:25;12.60;90.30
9820;DHT22;4949;48.482;9.206;2023-05-14T07:48:26;12.70;90.20
9820;DHT22;4949;48.482;9.206;2023-05-14T07:53:29;12.80;90.20
9820;DHT22;4949;48.482;9.206;2023-05-14T07:58:32;12.90;90.30
9820;DHT22;4949;48.482;9.206;2023-05-14T08:03:35;13.00;90.10
9820;DHT22;4949;48.482;9.206;2023-05-14T08:08:41;13.10;90.00
9820;DHT22;4949;48.482;9.206;2023-05-14T08:13:41;13.10;89.50
9820;DHT22;4949;48.482;9.206;2023-05-14T08:18:44;13.20;88.80
9820;DHT22;4949;48.482;9.206;2023-05-14T08:23:50;13.30;88.90
9820;DHT22;4949;48.482;9.206;2023-05-14T08:28:53;13.30;88.50
9820;DHT22;4949;48.482;9.206;2023-05-14T08:33:54;13.50;88.80
9820;DHT22;4949;48.482;9.206;2023-05-14T08:38:57;13.50;87.50
9820;DHT22;4949;48.482;9.206;2023-05-14T08:44:09;13.50;87.60
9820;DHT22;4949;48.482;9.206;2023-05-14T08:54:42;13.90;87.00
9820;DHT22;4949;48.482;9.206;2023-05-14T08:59:48;14.00;85.80
9820;DHT22;4949;48.482;9.206;2023-05-14T09:04:57;14.10;85.50
9820;DHT22;4949;48.482;9.206;2023-05-14T09:10:00;14.20;85.80
9820;DHT22;4949;48.482;9.206;2023-05-14T09:15:01;14.30;83.90
9820;DHT22;4949;48.482;9.206;2023-05-14T09:20:03;14.50;84.00
9820;DHT22;4949;48.482;9.206;2023-05-14T09:25:06;14.70;83.30
9820;DHT22;4949;48.482;9.206;2023-05-14T09:30:11;14.70;82.40
9820;DHT22;4949;48.482;9.206;2023-05-14T09:35:16;14.80;82.70
9820;DHT22;4949;48.482;9.206;2023-05-14T09:40:22;14.90;81.10
9820;DHT22;4949;48.482;9.206;2023-05-14T09:45:23;14.80;80.80
9820;DHT22;4949;48.482;9.206;2023-05-14T09:50:31;14.80;80.70
9820;DHT22;4949;48.482;9.206;2023-05-14T09:55:32;14.90;81.00
9820;DHT22;4949;48.482;9.206;2023-05-14T10:00:36;15.00;79.30
9820;DHT22;4949;48.482;9.206;2023-05-14T10:05:39;15.00;78.90
9820;DHT22;4949;48.482;9.206;2023-05-14T10:10:44;15.00;79.20
9820;DHT22;4949;48.482;9.206;2023-05-14T10:15:54;15.10;79.20
9820;DHT22;4949;48.482;9.206;2023-05-14T10:21:05;15.20;79.20
9820;DHT22;4949;48.482;9.206;2023-05-14T10:26:09;15.30;78.80
9820;DHT22;4949;48.482;9.206;2023-05-14T10:31:11;15.50;77.70
9820;DHT22;4949;48.482;9.206;2023-05-14T10:36:12;15.70;77.30
9820;DHT22;4949;48.482;9.206;2023-05-14T10:41:14;15.90;76.20
9820;DHT22;4949;48.482;9.206;2023-05-14T10:46:17;16.10;75.70
9820;DHT22;4949;48.482;9.206;2023-05-14T10:51:17;16.30;75.80
9820;DHT22;4949;48.482;9.206;2023-05-14T10:56:22;16.60;75.50
9820;DHT22;4949;48.482;9.206;2023-05-14T11:01:27;16.70;73.00
9820;DHT22;4949;48.482;9.206;2023-05-14T11:06:28;16.90;72.20
9820;DHT22;4949;48.482;9.206;2023-05-14T11:11:37;17.00;71.20
9820;DHT22;4949;48.482;9.206;2023-05-14T11:16:38;17.10;70.40
9820;DHT22;4949;48.482;9.206;2023-05-14T11:21:40;17.20;69.50
9820;DHT22;4949;48.482;9.206;2023-05-14T11:26:44;17.40;69.30
9820;DHT22;4949;48.482;9.206;2023-05-14T11:31:48;17.40;68.80
9820;DHT22;4949;48.482;9.206;2023-05-14T11:36:51;17.50;68.50
9820;DHT22;4949;48.482;9.206;2023-05-14T11:41:52;17.50;68.10
9820;DHT22;4949;48.482;9.206;2023-05-14T11:46:56;17.60;69.70
9820;DHT22;4949;48.482;9.206;2023-05-14T11:51:58;17.80;71.30
9820;DHT22;4949;48.482;9.206;2023-05-14T11:57:11;17.90;66.80
9820;DHT22;4949;48.482;9.206;2023-05-14T12:02:15;17.90;68.40
9820;DHT22;4949;48.482;9.206;2023-05-14T12:07:17;18.00;68.80
9820;DHT22;4949;48.482;9.206;2023-05-14T12:12:20;18.10;66.40
9820;DHT22;4949;48.482;9.206;2023-05-14T12:17:22;17.90;65.10
9820;DHT22;4949;48.482;9.206;2023-05-14T12:22:23;18.00;65.50
9820;DHT22;4949;48.482;9.206;2023-05-14T12:27:25;18.00;65.40
9820;DHT22;4949;48.482;9.206;2023-05-14T12:32:30;18.20;65.40
9820;DHT22;4949;48.482;9.206;2023-05-14T12:37:31;18.20;64.40
9820;DHT22;4949;48.482;9.206;2023-05-14T12:42:33;18.40;64.50
9820;DHT22;4949;48.482;9.206;2023-05-14T12:47:34;18.70;65.40
9820;DHT22;4949;48.482;9.206;2023-05-14T12:52:37;19.10;65.50
9820;DHT22;4949;48.482;9.206;2023-05-14T12:57:38;19.40;63.00
9820;DHT22;4949;48.482;9.206;2023-05-14T13:02:39;19.60;62.40
9820;DHT22;4949;48.482;9.206;2023-05-14T13:07:40;19.70;61.70
9820;DHT22;4949;48.482;9.206;2023-05-14T13:12:43;19.80;60.60
9820;DHT22;4949;48.482;9.206;2023-05-14T13:17:44;19.90;61.20
9820;DHT22;4949;48.482;9.206;2023-05-14T13:22:47;20.00;61.70
9820;DHT22;4949;48.482;9.206;2023-05-14T13:27:50;20.10;59.90
9820;DHT22;4949;48.482;9.206;2023-05-14T13:32:51;20.20;57.50
9820;DHT22;4949;48.482;9.206;2023-05-14T13:37:54;20.20;57.70
9820;DHT22;4949;48.482;9.206;2023-05-14T13:42:55;20.20;58.70
9820;DHT22;4949;48.482;9.206;2023-05-14T13:47:56;20.10;59.80
9820;DHT22;4949;48.482;9.206;2023-05-14T13:52:58;20.20;59.10
9820;DHT22;4949;48.482;9.206;2023-05-14T13:58:02;20.20;58.90
9820;DHT22;4949;48.482;9.206;2023-05-14T14:03:04;20.30;59.10
9820;DHT22;4949;48.482;9.206;2023-05-14T14:08:05;20.40;58.80
9820;DHT22;4949;48.482;9.206;2023-05-14T14:13:08;20.40;58.50
9820;DHT22;4949;48.482;9.206;2023-05-14T14:18:10;20.30;58.00
9820;DHT22;4949;48.482;9.206;2023-05-14T14:23:11;20.40;58.70
9820;DHT22;4949;48.482;9.206;2023-05-14T14:28:11;20.50;58.80
9820;DHT22;4949;48.482;9.206;2023-05-14T14:33:13;20.70;58.20
9820;DHT22;4949;48.482;9.206;2023-05-14T14:38:13;20.60;58.50
9820;DHT22;4949;48.482;9.206;2023-05-14T14:43:14;20.60;58.40
9820;DHT22;4949;48.482;9.206;2023-05-14T14:53:26;20.60;57.00
9820;DHT22;4949;48.482;9.206;2023-05-14T14:58:28;20.70;57.50
9820;DHT22;4949;48.482;9.206;2023-05-14T15:03:30;20.70;56.40
9820;DHT22;4949;48.482;9.206;2023-05-14T15:08:31;20.60;55.90
9820;DHT22;4949;48.482;9.206;2023-05-14T15:13:32;20.50;56.10
9820;DHT22;4949;48.482;9.206;2023-05-14T15:18:35;20.50;56.10
9820;DHT22;4949;48.482;9.206;2023-05-14T15:23:36;20.60;57.10
9820;DHT22;4949;48.482;9.206;2023-05-14T15:28:37;20.60;56.60
9820;DHT22;4949;48.482;9.206;2023-05-14T15:33:40;20.60;57.00
9820;DHT22;4949;48.482;9.206;2023-05-14T15:38:41;20.60;57.50
9820;DHT22;4949;48.482;9.206;2023-05-14T15:43:44;20.70;57.00
9820;DHT22;4949;48.482;9.206;2023-05-14T15:48:47;20.60;56.30
9820;DHT22;4949;48.482;9.206;2023-05-14T15:53:48;20.60;56.80
9820;DHT22;4949;48.482;9.206;2023-05-14T15:58:49;20.50;56.90
9820;DHT22;4949;48.482;9.206;2023-05-14T16:03:50;20.50;55.80
9820;DHT22;4949;48.482;9.206;2023-05-14T16:08:51;20.40;56.50
9820;DHT22;4949;48.482;9.206;2023-05-14T16:13:52;20.10;59.70
9820;DHT22;4949;48.482;9.206;2023-05-14T16:18:53;19.80;61.20
9820;DHT22;4949;48.482;9.206;2023-05-14T16:23:56;19.70;62.10
9820;DHT22;4949;48.482;9.206;2023-05-14T16:29:05;19.40;62.60
9820;DHT22;4949;48.482;9.206;2023-05-14T16:34:05;19.10;64.30
9820;DHT22;4949;48.482;9.206;2023-05-14T16:39:06;18.90;65.30
9820;DHT22;4949;48.482;9.206;2023-05-14T16:44:07;18.80;65.80
9820;DHT22;4949;48.482;9.206;2023-05-14T16:49:08;18.40;67.70
9820;DHT22;4949;48.482;9.206;2023-05-14T16:54:11;17.80;70.10
9820;DHT22;4949;48.482;9.206;2023-05-14T16:59:15;17.90;67.50
9820;DHT22;4949;48.482;9.206;2023-05-14T17:04:16;17.70;69.00
9820;DHT22;4949;48.482;9.206;2023-05-14T17:09:17;17.40;69.80
9820;DHT22;4949;48.482;9.206;2023-05-14T17:14:18;17.40;70.00
9820;DHT22;4949;48.482;9.206;2023-05-14T17:19:24;17.40;70.70
9820;DHT22;4949;48.482;9.206;2023-05-14T17:24:28;17.40;71.90
9820;DHT22;4949;48.482;9.206;2023-05-14T17:29:28;17.10;72.60
9820;DHT22;4949;48.482;9.206;2023-05-14T17:34:30;17.10;74.80
9820;DHT22;4949;48.482;9.206;2023-05-14T17:39:30;16.80;75.00
9820;DHT22;4949;48.482;9.206;2023-05-14T17:44:31;16.70;75.00
9820;DHT22;4949;48.482;9.206;2023-05-14T17:49:32;16.60;76.00
9820;DHT22;4949;48.482;9.206;2023-05-14T17:54:33;16.60;76.60
9820;DHT22;4949;48.482;9.206;2023-05-14T17:59:35;16.50;76.50
9820;DHT22;4949;48.482;9.206;2023-05-14T18:04:37;16.40;75.10
9820;DHT22;4949;48.482;9.206;2023-05-14T18:09:40;16.20;76.50
9820;DHT22;4949;48.482;9.206;2023-05-14T18:14:41;16.20;75.50
9820;DHT22;4949;48.482;9.206;2023-05-14T18:19:42;16.10;76.10
9820;DHT22;4949;48.482;9.206;2023-05-14T18:24:44;16.10;76.50
9820;DHT22;4949;48.482;9.206;2023-05-14T18:29:47;16.00;78.00
9820;DHT22;4949;48.482;9.206;2023-05-14T18:34:48;16.00;79.00
9820;DHT22;4949;48.482;9.206;2023-05-14T18:39:48;15.80;79.50
9820;DHT22;4949;48.482;9.206;2023-05-14T18:44:54;15.80;79.80
9820;DHT22;4949;48.482;9.206;2023-05-14T18:49:55;15.80;79.30
9820;DHT22;4949;48.482;9.206;2023-05-14T18:54:58;15.70;78.50
9820;DHT22;4949;48.482;9.206;2023-05-14T18:59:59;15.60;79.20
9820;DHT22;4949;48.482;9.206;2023-05-14T19:05:08;15.40;80.50
9820;DHT22;4949;48.482;9.206;2023-05-14T19:10:09;15.30;80.80
9820;DHT22;4949;48.482;9.206;2023-05-14T19:15:10;15.30;80.40
9820;DHT22;4949;48.482;9.206;2023-05-14T19:20:11;15.20;81.20
9820;DHT22;4949;48.482;9.206;2023-05-14T19:25:14;15.00;80.60
9820;DHT22;4949;48.482;9.206;2023-05-14T19:30:16;14.80;81.60
9820;DHT22;4949;48.482;9.206;2023-05-14T19:35:19;14.70;81.50
9820;DHT22;4949;48.482;9.206;2023-05-14T19:40:23;14.60;82.00
9820;DHT22;4949;48.482;9.206;2023-05-14T19:45:26;14.40;82.20
9820;DHT22;4949;48.482;9.206;2023-05-14T19:50:29;14.30;82.70
9820;DHT22;4949;48.482;9.206;2023-05-14T19:55:30;14.10;82.80
9820;DHT22;4949;48.482;9.206;2023-05-14T20:00:34;14.00;83.00
9820;DHT22;4949;48.482;9.206;2023-05-14T20:05:38;14.00;83.20
9820;DHT22;4949;48.482;9.206;2023-05-14T20:10:39;13.90;83.40
9820;DHT22;4949;48.482;9.206;2023-05-14T20:15:41;13.80;83.70
9820;DHT22;4949;48.482;9.206;2023-05-14T20:20:42;13.70;83.70
9820;DHT22;4949;48.482;9.206;2023-05-14T20:25:43;13.70;83.80
9820;DHT22;4949;48.482;9.206;2023-05-14T20:30:44;13.60;83.30
9820;DHT22;4949;48.482;9.206;2023-05-14T20:35:45;13.50;83.30
9820;DHT22;4949;48.482;9.206;2023-05-14T20:40:47;13.30;83.40
9820;DHT22;4949;48.482;9.206;2023-05-14T20:45:51;13.30;83.80
9820;DHT22;4949;48.482;9.206;2023-05-14T20:50:56;13.20;84.00
9820;DHT22;4949;48.482;9.206;2023-05-14T20:55:59;13.10;84.50
9820;DHT22;4949;48.482;9.206;2023-05-14T21:01:00;13.00;85.00
9820;DHT22;4949;48.482;9.206;2023-05-14T21:06:02;13.00;84.70
9820;DHT22;4949;48.482;9.206;2023-05-14T21:11:08;13.00;85.30
9820;DHT22;4949;48.482;9.206;2023-05-14T21:16:11;12.90;85.30
9820;DHT22;4949;48.482;9.206;2023-05-14T21:21:12;12.90;85.40
9820;DHT22;4949;48.482;9.206;2023-05-14T21:26:12;12.90;85.60
9820;DHT22;4949;48.482;9.206;2023-05-14T21:31:13;12.90;85.30
9820;DHT22;4949;48.482;9.206;2023-05-14T21:36:17;12.90;85.40
9820;DHT22;4949;48.482;9.206;2023-05-14T21:41:17;12.80;85.60
9820;DHT22;4949;48.482;9.206;2023-05-14T21:46:18;12.80;85.40
9820;DHT22;4949;48.482;9.206;2023-05-14T21:51:19;12.70;85.30
9820;DHT22;4949;48.482;9.206;2023-05-14T21:56:22;12.60;85.90
9820;DHT22;4949;48.482;9.206;2023-05-14T22:01:23;12.60;85.00
9820;DHT22;4949;48.482;9.206;2023-05-14T22:06:26;12.60;85.90
9820;DHT22;4949;48.482;9.206;2023-05-14T22:11:30;12.50;85.90
9820;DHT22;4949;48.482;9.206;2023-05-14T22:16:31;12.50;86.20
9820;DHT22;4949;48.482;9.206;2023-05-14T22:21:32;12.50;85.90
9820;DHT22;4949;48.482;9.206;2023-05-14T22:26:33;12.40;86.00
9820;DHT22;4949;48.482;9.206;2023-05-14T22:31:34;12.30;85.60
9820;DHT22;4949;48.482;9.206;2023-05-14T22:36:37;12.30;85.80
9820;DHT22;4949;48.482;9.206;2023-05-14T22:41:43;12.20;86.10
9820;DHT22;4949;48.482;9.206;2023-05-14T22:46:43;12.10;86.20
9820;DHT22;4949;48.482;9.206;2023-05-14T22:51:44;12.10;86.00
9820;DHT22;4949;48.482;9.206;2023-05-14T22:56:47;12.00;86.40
9820;DHT22;4949;48.482;9.206;2023-05-14T23:01:53;11.90;86.40
9820;DHT22;4949;48.482;9.206;2023-05-14T23:06:53;11.90;86.30
9820;DHT22;4949;48.482;9.206;2023-05-14T23:11:56;11.80;86.70
9820;DHT22;4949;48.482;9.206;2023-05-14T23:16:59;11.70;86.40
9820;DHT22;4949;48.482;9.206;2023-05-14T23:22:00;11.70;86.70
9820;DHT22;4949;48.482;9.206;2023-05-14T23:27:03;11.60;86.10
9820;DHT22;4949;48.482;9.206;2023-05-14T23:32:04;11.50;86.70
9820;DHT22;4949;48.482;9.206;2023-05-14T23:37:10;11.40;86.30
9820;DHT22;4949;48.482;9.206;2023-05-14T23:42:11;11.50;86.60
9820;DHT22;4949;48.482;9.206;2023-05-14T23:47:12;11.30;86.20
9820;DHT22;4949;48.482;9.206;2023-05-14T23:52:15;11.20;86.60
9820;DHT22;4949;48.482;9.206;2023-05-14T23:57:18;11.50;87.20
